sensor_id;sensor_type;location;lat;lon;timestamp;P1;durP1;ratioP1;P2;durP2;ratioP2
21175;SDS011;10746;50.178;8.186;2023-02-08T00:00:52;5.77;;;4.30;;
21175;SDS011;10746;50.178;8.186;2023-02-08T00:03:19;7.30;;;4.73;;
21175;SDS011;10746;50.178;8.186;2023-02-08T00:05:46;8.13;;;4.60;;
21175;SDS011;10746;50.178;8.186;2023-02-08T00:08:13;7.07;;;4.47;;
21175;SDS011;10746;50.178;8.186;2023-02-08T00:10:41;7.93;;;4.87;;
21175;SDS011;10746;50.178;8.186;2023-02-08T00:13:08;9.80;;;4.90;;
21175;SDS011;10746;50.178;8.186;2023-02-08T00:15:39;8.43;;;4.70;;
21175;SDS011;10746;50.178;8.186;2023-02-08T00:18:06;7.60;;;4.57;;
21175;SDS011;10746;50.178;8.186;2023-02-08T00:20:33;6.40;;;4.30;;
21175;SDS011;10746;50.178;8.186;2023-02-08T00:23:00;6.80;;;4.70;;
21175;SDS011;10746;50.178;8.186;2023-02-08T00:25:27;6.93;;;4.23;;
21175;SDS011;10746;50.178;8.186;2023-02-08T00:27:55;5.43;;;4.40;;
21175;SDS011;10746;50.178;8.186;2023-02-08T00:30:21;8.87;;;5.20;;
21175;SDS011;10746;50.178;8.186;2023-02-08T00:32:48;6.30;;;4.23;;
21175;SDS011;10746;50.178;8.186;2023-02-08T00:35:15;10.10;;;4.80;;
21175;SDS011;10746;50.178;8.186;2023-02-08T00:37:42;7.07;;;4.90;;
21175;SDS011;10746;50.178;8.186;2023-02-08T00:40:09;6.27;;;4.40;;
21175;SDS011;10746;50.178;8.186;2023-02-08T00:42:36;9.33;;;4.30;;
21175;SDS011;10746;50.178;8.186;2023-02-08T00:45:05;7.10;;;4.50;;
21175;SDS011;10746;50.178;8.186;2023-02-08T00:47:32;9.43;;;4.97;;
21175;SDS011;10746;50.178;8.186;2023-02-08T00:49:59;6.17;;;4.30;;
21175;SDS011;10746;50.178;8.186;2023-02-08T00:52:26;6.43;;;4.47;;
21175;SDS011;10746;50.178;8.186;2023-02-08T00:54:53;8.90;;;4.57;;
21175;SDS011;10746;50.178;8.186;2023-02-08T00:57:20;8.53;;;4.70;;
21175;SDS011;10746;50.178;8.186;2023-02-08T00:59:47;10.90;;;5.40;;
21175;SDS011;10746;50.178;8.186;2023-02-08T01:02:15;8.50;;;4.70;;
21175;SDS011;10746;50.178;8.186;2023-02-08T01:04:42;7.97;;;4.60;;
21175;SDS011;10746;50.178;8.186;2023-02-08T01:07:09;10.60;;;4.90;;
21175;SDS011;10746;50.178;8.186;2023-02-08T01:09:36;8.00;;;4.60;;
21175;SDS011;10746;50.178;8.186;2023-02-08T01:12:02;7.80;;;5.30;;
21175;SDS011;10746;50.178;8.186;2023-02-08T01:14:29;6.07;;;4.57;;
21175;SDS011;10746;50.178;8.186;2023-02-08T01:16:56;7.70;;;4.20;;
21175;SDS011;10746;50.178;8.186;2023-02-08T01:19:24;9.93;;;5.23;;
21175;SDS011;10746;50.178;8.186;2023-02-08T01:21:51;6.30;;;4.27;;
21175;SDS011;10746;50.178;8.186;2023-02-08T01:24:18;8.40;;;5.13;;
21175;SDS011;10746;50.178;8.186;2023-02-08T01:26:44;8.43;;;4.90;;
21175;SDS011;10746;50.178;8.186;2023-02-08T01:29:11;7.00;;;4.67;;
21175;SDS011;10746;50.178;8.186;2023-02-08T01:31:39;8.70;;;4.60;;
21175;SDS011;10746;50.178;8.186;2023-02-08T01:34:07;8.47;;;4.87;;
21175;SDS011;10746;50.178;8.186;2023-02-08T01:36:37;9.03;;;5.03;;
21175;SDS011;10746;50.178;8.186;2023-02-08T01:39:05;9.33;;;4.80;;
21175;SDS011;10746;50.178;8.186;2023-02-08T01:41:33;5.63;;;4.00;;
21175;SDS011;10746;50.178;8.186;2023-02-08T01:44:06;7.20;;;4.73;;
21175;SDS011;10746;50.178;8.186;2023-02-08T01:46:53;8.23;;;4.90;;
21175;SDS011;10746;50.178;8.186;2023-02-08T01:49:21;8.73;;;4.60;;
21175;SDS011;10746;50.178;8.186;2023-02-08T01:51:52;7.80;;;4.90;;
21175;SDS011;10746;50.178;8.186;2023-02-08T01:54:24;7.83;;;5.30;;
21175;SDS011;10746;50.178;8.186;2023-02-08T01:56:53;5.90;;;3.97;;
21175;SDS011;10746;50.178;8.186;2023-02-08T01:59:21;9.03;;;4.80;;
21175;SDS011;10746;50.178;8.186;2023-02-08T02:01:51;11.90;;;5.10;;
21175;SDS011;10746;50.178;8.186;2023-02-08T02:04:21;6.97;;;4.50;;
21175;SDS011;10746;50.178;8.186;2023-02-08T02:06:53;7.83;;;5.13;;
21175;SDS011;10746;50.178;8.186;2023-02-08T02:09:25;7.93;;;4.93;;
21175;SDS011;10746;50.178;8.186;2023-02-08T02:11:56;7.83;;;4.93;;
21175;SDS011;10746;50.178;8.186;2023-02-08T02:14:24;7.60;;;4.80;;
21175;SDS011;10746;50.178;8.186;2023-02-08T02:16:51;10.33;;;5.10;;
21175;SDS011;10746;50.178;8.186;2023-02-08T02:19:21;6.83;;;4.97;;
21175;SDS011;10746;50.178;8.186;2023-02-08T02:22:00;8.07;;;4.80;;
21175;SDS011;10746;50.178;8.186;2023-02-08T02:24:44;9.90;;;5.67;;
21175;SDS011;10746;50.178;8.186;2023-02-08T02:27:32;7.30;;;4.70;;
21175;SDS011;10746;50.178;8.186;2023-02-08T02:30:18;8.10;;;4.83;;
21175;SDS011;10746;50.178;8.186;2023-02-08T02:33:00;10.13;;;5.20;;
21175;SDS011;10746;50.178;8.186;2023-02-08T02:35:45;10.80;;;5.20;;
21175;SDS011;10746;50.178;8.186;2023-02-08T02:38:24;5.93;;;5.00;;
21175;SDS011;10746;50.178;8.186;2023-02-08T02:41:06;10.20;;;5.30;;
21175;SDS011;10746;50.178;8.186;2023-02-08T02:44:00;7.83;;;4.83;;
21175;SDS011;10746;50.178;8.186;2023-02-08T02:46:30;7.30;;;4.80;;
21175;SDS011;10746;50.178;8.186;2023-02-08T02:49:08;9.73;;;4.77;;
21175;SDS011;10746;50.178;8.186;2023-02-08T02:51:42;8.67;;;5.37;;
21175;SDS011;10746;50.178;8.186;2023-02-08T02:54:16;6.13;;;4.40;;
21175;SDS011;10746;50.178;8.186;2023-02-08T02:56:46;9.20;;;5.27;;
21175;SDS011;10746;50.178;8.186;2023-02-08T02:59:21;8.07;;;5.40;;
21175;SDS011;10746;50.178;8.186;2023-02-08T03:01:48;7.97;;;5.03;;
21175;SDS011;10746;50.178;8.186;2023-02-08T03:04:17;10.47;;;4.97;;
21175;SDS011;10746;50.178;8.186;2023-02-08T03:07:04;8.50;;;4.80;;
21175;SDS011;10746;50.178;8.186;2023-02-08T03:09:51;7.87;;;4.87;;
21175;SDS011;10746;50.178;8.186;2023-02-08T03:12:33;7.07;;;4.30;;
21175;SDS011;10746;50.178;8.186;2023-02-08T03:15:05;8.43;;;4.67;;
21175;SDS011;10746;50.178;8.186;2023-02-08T03:17:49;9.07;;;4.83;;
21175;SDS011;10746;50.178;8.186;2023-02-08T03:20:28;7.30;;;5.03;;
21175;SDS011;10746;50.178;8.186;2023-02-08T03:22:58;7.07;;;4.80;;
21175;SDS011;10746;50.178;8.186;2023-02-08T03:25:33;8.10;;;5.03;;
21175;SDS011;10746;50.178;8.186;2023-02-08T03:28:06;8.20;;;4.97;;
21175;SDS011;10746;50.178;8.186;2023-02-08T03:30:37;9.53;;;5.43;;
21175;SDS011;10746;50.178;8.186;2023-02-08T03:33:10;8.80;;;5.03;;
21175;SDS011;10746;50.178;8.186;2023-02-08T03:35:43;8.03;;;4.83;;
21175;SDS011;10746;50.178;8.186;2023-02-08T03:38:16;10.27;;;4.70;;
21175;SDS011;10746;50.178;8.186;2023-02-08T03:40:49;8.33;;;5.10;;
21175;SDS011;10746;50.178;8.186;2023-02-08T03:43:19;10.67;;;5.23;;
21175;SDS011;10746;50.178;8.186;2023-02-08T03:45:49;11.83;;;5.50;;
21175;SDS011;10746;50.178;8.186;2023-02-08T03:48:18;7.50;;;5.00;;
21175;SDS011;10746;50.178;8.186;2023-02-08T03:50:49;9.90;;;5.47;;
21175;SDS011;10746;50.178;8.186;2023-02-08T03:53:19;8.20;;;4.97;;
21175;SDS011;10746;50.178;8.186;2023-02-08T03:55:48;9.70;;;5.13;;
21175;SDS011;10746;50.178;8.186;2023-02-08T03:58:21;12.60;;;5.83;;
21175;SDS011;10746;50.178;8.186;2023-02-08T04:00:50;10.13;;;5.43;;
21175;SDS011;10746;50.178;8.186;2023-02-08T04:03:23;6.63;;;5.43;;
21175;SDS011;10746;50.178;8.186;2023-02-08T04:05:53;8.63;;;5.30;;
21175;SDS011;10746;50.178;8.186;2023-02-08T04:08:20;12.80;;;5.60;;
21175;SDS011;10746;50.178;8.186;2023-02-08T04:10:47;9.50;;;5.23;;
21175;SDS011;10746;50.178;8.186;2023-02-08T04:13:14;9.30;;;5.80;;
21175;SDS011;10746;50.178;8.186;2023-02-08T04:15:41;14.17;;;5.83;;
21175;SDS011;10746;50.178;8.186;2023-02-08T04:18:08;8.33;;;5.57;;
21175;SDS011;10746;50.178;8.186;2023-02-08T04:20:35;10.33;;;5.40;;
21175;SDS011;10746;50.178;8.186;2023-02-08T04:23:03;8.60;;;5.63;;
21175;SDS011;10746;50.178;8.186;2023-02-08T04:25:30;8.07;;;5.27;;
21175;SDS011;10746;50.178;8.186;2023-02-08T04:27:56;11.37;;;5.57;;
21175;SDS011;10746;50.178;8.186;2023-02-08T04:30:23;11.20;;;6.03;;
21175;SDS011;10746;50.178;8.186;2023-02-08T04:32:50;10.07;;;5.50;;
21175;SDS011;10746;50.178;8.186;2023-02-08T04:35:17;11.23;;;5.43;;
21175;SDS011;10746;50.178;8.186;2023-02-08T04:37:44;10.57;;;5.77;;
21175;SDS011;10746;50.178;8.186;2023-02-08T04:40:12;8.60;;;5.50;;
21175;SDS011;10746;50.178;8.186;2023-02-08T04:42:38;9.73;;;5.37;;
21175;SDS011;10746;50.178;8.186;2023-02-08T04:45:05;7.80;;;5.60;;
21175;SDS011;10746;50.178;8.186;2023-02-08T04:47:33;10.37;;;5.53;;
21175;SDS011;10746;50.178;8.186;2023-02-08T04:49:59;9.90;;;5.40;;
21175;SDS011;10746;50.178;8.186;2023-02-08T04:52:26;10.00;;;5.93;;
21175;SDS011;10746;50.178;8.186;2023-02-08T04:54:53;8.90;;;5.43;;
21175;SDS011;10746;50.178;8.186;2023-02-08T04:57:21;12.23;;;5.53;;
21175;SDS011;10746;50.178;8.186;2023-02-08T04:59:48;11.80;;;6.07;;
21175;SDS011;10746;50.178;8.186;2023-02-08T05:02:14;9.10;;;5.80;;
21175;SDS011;10746;50.178;8.186;2023-02-08T05:04:41;8.50;;;5.47;;
21175;SDS011;10746;50.178;8.186;2023-02-08T05:07:08;9.67;;;5.53;;
21175;SDS011;10746;50.178;8.186;2023-02-08T05:09:35;10.63;;;5.33;;
21175;SDS011;10746;50.178;8.186;2023-02-08T05:12:01;10.03;;;5.10;;
21175;SDS011;10746;50.178;8.186;2023-02-08T05:14:30;11.80;;;5.47;;
21175;SDS011;10746;50.178;8.186;2023-02-08T05:16:56;10.67;;;5.40;;
21175;SDS011;10746;50.178;8.186;2023-02-08T05:19:23;8.43;;;5.97;;
21175;SDS011;10746;50.178;8.186;2023-02-08T05:21:50;14.73;;;5.63;;
21175;SDS011;10746;50.178;8.186;2023-02-08T05:24:17;11.03;;;5.37;;
21175;SDS011;10746;50.178;8.186;2023-02-08T05:26:43;11.37;;;5.83;;
21175;SDS011;10746;50.178;8.186;2023-02-08T05:29:10;9.60;;;5.67;;
21175;SDS011;10746;50.178;8.186;2023-02-08T05:31:38;7.47;;;5.13;;
21175;SDS011;10746;50.178;8.186;2023-02-08T05:34:05;9.80;;;5.17;;
21175;SDS011;10746;50.178;8.186;2023-02-08T05:36:32;9.30;;;5.60;;
21175;SDS011;10746;50.178;8.186;2023-02-08T05:38:59;10.43;;;5.47;;
21175;SDS011;10746;50.178;8.186;2023-02-08T05:41:25;9.67;;;5.17;;
21175;SDS011;10746;50.178;8.186;2023-02-08T05:43:52;8.53;;;5.10;;
21175;SDS011;10746;50.178;8.186;2023-02-08T05:46:19;10.70;;;4.80;;
21175;SDS011;10746;50.178;8.186;2023-02-08T05:48:47;10.00;;;5.00;;
21175;SDS011;10746;50.178;8.186;2023-02-08T05:51:14;8.93;;;5.10;;
21175;SDS011;10746;50.178;8.186;2023-02-08T05:53:40;9.27;;;5.20;;
21175;SDS011;10746;50.178;8.186;2023-02-08T05:56:09;15.03;;;6.33;;
21175;SDS011;10746;50.178;8.186;2023-02-08T05:58:36;10.27;;;5.30;;
21175;SDS011;10746;50.178;8.186;2023-02-08T06:01:06;9.57;;;5.03;;
21175;SDS011;10746;50.178;8.186;2023-02-08T06:03:34;15.63;;;5.80;;
21175;SDS011;10746;50.178;8.186;2023-02-08T06:06:02;14.20;;;5.73;;
21175;SDS011;10746;50.178;8.186;2023-02-08T06:08:29;8.00;;;5.00;;
21175;SDS011;10746;50.178;8.186;2023-02-08T06:10:56;10.47;;;5.77;;
21175;SDS011;10746;50.178;8.186;2023-02-08T06:13:23;10.03;;;5.47;;
21175;SDS011;10746;50.178;8.186;2023-02-08T06:15:50;6.80;;;5.10;;
21175;SDS011;10746;50.178;8.186;2023-02-08T06:18:16;7.50;;;5.30;;
21175;SDS011;10746;50.178;8.186;2023-02-08T06:20:43;8.73;;;4.97;;
21175;SDS011;10746;50.178;8.186;2023-02-08T06:23:11;9.93;;;5.53;;
21175;SDS011;10746;50.178;8.186;2023-02-08T06:25:38;10.70;;;5.50;;
21175;SDS011;10746;50.178;8.186;2023-02-08T06:28:05;9.23;;;5.60;;
21175;SDS011;10746;50.178;8.186;2023-02-08T06:30:34;10.57;;;5.53;;
21175;SDS011;10746;50.178;8.186;2023-02-08T06:33:01;10.53;;;5.33;;
21175;SDS011;10746;50.178;8.186;2023-02-08T06:35:28;18.73;;;6.17;;
21175;SDS011;10746;50.178;8.186;2023-02-08T06:37:55;9.03;;;5.17;;
21175;SDS011;10746;50.178;8.186;2023-02-08T06:40:24;17.03;;;5.53;;
21175;SDS011;10746;50.178;8.186;2023-02-08T06:42:51;8.17;;;4.83;;
21175;SDS011;10746;50.178;8.186;2023-02-08T06:45:17;10.57;;;5.37;;
21175;SDS011;10746;50.178;8.186;2023-02-08T06:47:44;11.13;;;5.50;;
21175;SDS011;10746;50.178;8.186;2023-02-08T06:50:11;7.87;;;5.27;;
21175;SDS011;10746;50.178;8.186;2023-02-08T06:52:39;9.97;;;5.10;;
21175;SDS011;10746;50.178;8.186;2023-02-08T06:55:06;8.93;;;5.63;;
21175;SDS011;10746;50.178;8.186;2023-02-08T06:57:34;11.93;;;5.57;;
21175;SDS011;10746;50.178;8.186;2023-02-08T07:00:01;11.85;;;6.20;;
21175;SDS011;10746;50.178;8.186;2023-02-08T07:02:28;10.20;;;5.60;;
21175;SDS011;10746;50.178;8.186;2023-02-08T07:04:55;9.80;;;5.77;;
21175;SDS011;10746;50.178;8.186;2023-02-08T07:07:22;10.00;;;5.40;;
21175;SDS011;10746;50.178;8.186;2023-02-08T07:09:49;8.47;;;4.90;;
21175;SDS011;10746;50.178;8.186;2023-02-08T07:12:15;6.30;;;4.70;;
21175;SDS011;10746;50.178;8.186;2023-02-08T07:14:43;8.20;;;4.67;;
21175;SDS011;10746;50.178;8.186;2023-02-08T07:17:10;8.63;;;5.50;;
21175;SDS011;10746;50.178;8.186;2023-02-08T07:19:38;9.90;;;5.10;;
21175;SDS011;10746;50.178;8.186;2023-02-08T07:22:05;11.77;;;5.53;;
21175;SDS011;10746;50.178;8.186;2023-02-08T07:24:33;7.37;;;4.70;;
21175;SDS011;10746;50.178;8.186;2023-02-08T07:27:00;7.87;;;5.10;;
21175;SDS011;10746;50.178;8.186;2023-02-08T07:29:27;10.90;;;5.00;;
21175;SDS011;10746;50.178;8.186;2023-02-08T07:31:56;12.17;;;5.77;;
21175;SDS011;10746;50.178;8.186;2023-02-08T07:34:23;12.13;;;5.57;;
21175;SDS011;10746;50.178;8.186;2023-02-08T07:36:50;7.17;;;5.03;;
21175;SDS011;10746;50.178;8.186;2023-02-08T07:39:17;9.67;;;5.33;;
21175;SDS011;10746;50.178;8.186;2023-02-08T07:41:44;8.63;;;5.23;;
21175;SDS011;10746;50.178;8.186;2023-02-08T07:44:10;9.77;;;5.03;;
21175;SDS011;10746;50.178;8.186;2023-02-08T07:46:38;12.67;;;5.93;;
21175;SDS011;10746;50.178;8.186;2023-02-08T07:49:07;9.00;;;4.87;;
21175;SDS011;10746;50.178;8.186;2023-02-08T07:51:34;9.33;;;5.70;;
21175;SDS011;10746;50.178;8.186;2023-02-08T07:54:01;11.87;;;5.70;;
21175;SDS011;10746;50.178;8.186;2023-02-08T07:56:27;12.27;;;5.47;;
21175;SDS011;10746;50.178;8.186;2023-02-08T07:58:54;12.83;;;5.47;;
21175;SDS011;10746;50.178;8.186;2023-02-08T08:01:21;6.77;;;5.07;;
21175;SDS011;10746;50.178;8.186;2023-02-08T08:03:48;14.83;;;6.60;;
21175;SDS011;10746;50.178;8.186;2023-02-08T08:06:16;13.67;;;5.53;;
21175;SDS011;10746;50.178;8.186;2023-02-08T08:08:44;8.70;;;5.30;;
21175;SDS011;10746;50.178;8.186;2023-02-08T08:11:11;9.20;;;5.97;;
21175;SDS011;10746;50.178;8.186;2023-02-08T08:13:38;13.63;;;6.00;;
21175;SDS011;10746;50.178;8.186;2023-02-08T08:16:05;12.90;;;6.40;;
21175;SDS011;10746;50.178;8.186;2023-02-08T08:18:32;10.97;;;5.73;;
21175;SDS011;10746;50.178;8.186;2023-02-08T08:21:00;13.30;;;6.23;;
21175;SDS011;10746;50.178;8.186;2023-02-08T08:23:28;13.10;;;6.63;;
21175;SDS011;10746;50.178;8.186;2023-02-08T08:25:57;10.60;;;6.00;;
21175;SDS011;10746;50.178;8.186;2023-02-08T08:28:23;14.03;;;6.27;;
21175;SDS011;10746;50.178;8.186;2023-02-08T08:30:51;14.90;;;7.13;;
21175;SDS011;10746;50.178;8.186;2023-02-08T08:33:17;10.73;;;6.50;;
21175;SDS011;10746;50.178;8.186;2023-02-08T08:35:45;10.60;;;6.03;;
21175;SDS011;10746;50.178;8.186;2023-02-08T08:38:11;13.57;;;7.17;;
21175;SDS011;10746;50.178;8.186;2023-02-08T08:40:39;13.33;;;6.83;;
21175;SDS011;10746;50.178;8.186;2023-02-08T08:43:06;11.87;;;6.50;;
21175;SDS011;10746;50.178;8.186;2023-02-08T08:45:33;14.77;;;7.10;;
21175;SDS011;10746;50.178;8.186;2023-02-08T08:48:00;12.07;;;6.90;;
21175;SDS011;10746;50.178;8.186;2023-02-08T08:50:28;11.93;;;7.20;;
21175;SDS011;10746;50.178;8.186;2023-02-08T08:52:55;15.43;;;7.23;;
21175;SDS011;10746;50.178;8.186;2023-02-08T08:55:22;14.63;;;6.57;;
21175;SDS011;10746;50.178;8.186;2023-02-08T08:57:52;16.90;;;7.07;;
21175;SDS011;10746;50.178;8.186;2023-02-08T09:00:19;9.33;;;6.33;;
21175;SDS011;10746;50.178;8.186;2023-02-08T09:02:46;14.07;;;6.77;;
21175;SDS011;10746;50.178;8.186;2023-02-08T09:05:13;15.20;;;7.13;;
21175;SDS011;10746;50.178;8.186;2023-02-08T09:07:40;11.47;;;6.40;;
21175;SDS011;10746;50.178;8.186;2023-02-08T09:10:07;11.90;;;6.00;;
21175;SDS011;10746;50.178;8.186;2023-02-08T09:12:34;12.57;;;6.50;;
21175;SDS011;10746;50.178;8.186;2023-02-08T09:15:02;15.17;;;7.40;;
21175;SDS011;10746;50.178;8.186;2023-02-08T09:17:29;11.90;;;6.80;;
21175;SDS011;10746;50.178;8.186;2023-02-08T09:19:56;11.77;;;6.97;;
21175;SDS011;10746;50.178;8.186;2023-02-08T09:22:23;13.60;;;6.63;;
21175;SDS011;10746;50.178;8.186;2023-02-08T09:24:51;12.73;;;6.53;;
21175;SDS011;10746;50.178;8.186;2023-02-08T09:27:18;12.60;;;7.23;;
21175;SDS011;10746;50.178;8.186;2023-02-08T09:29:44;13.93;;;6.60;;
21175;SDS011;10746;50.178;8.186;2023-02-08T09:32:12;13.13;;;6.43;;
21175;SDS011;10746;50.178;8.186;2023-02-08T09:34:39;9.73;;;5.80;;
21175;SDS011;10746;50.178;8.186;2023-02-08T09:37:06;10.00;;;6.20;;
21175;SDS011;10746;50.178;8.186;2023-02-08T09:39:33;11.10;;;6.00;;
21175;SDS011;10746;50.178;8.186;2023-02-08T09:42:04;10.70;;;6.00;;
21175;SDS011;10746;50.178;8.186;2023-02-08T09:44:41;13.07;;;6.27;;
21175;SDS011;10746;50.178;8.186;2023-02-08T09:47:21;14.33;;;6.97;;
21175;SDS011;10746;50.178;8.186;2023-02-08T09:49:55;11.40;;;6.00;;
21175;SDS011;10746;50.178;8.186;2023-02-08T09:52:26;14.93;;;6.23;;
21175;SDS011;10746;50.178;8.186;2023-02-08T09:54:58;10.33;;;6.07;;
21175;SDS011;10746;50.178;8.186;2023-02-08T09:57:30;7.40;;;5.40;;
21175;SDS011;10746;50.178;8.186;2023-02-08T09:59:59;12.97;;;6.07;;
21175;SDS011;10746;50.178;8.186;2023-02-08T10:02:31;10.80;;;6.20;;
21175;SDS011;10746;50.178;8.186;2023-02-08T10:04:59;11.67;;;5.83;;
21175;SDS011;10746;50.178;8.186;2023-02-08T10:07:29;9.13;;;5.30;;
21175;SDS011;10746;50.178;8.186;2023-02-08T10:09:57;12.70;;;6.27;;
21175;SDS011;10746;50.178;8.186;2023-02-08T10:12:30;10.33;;;6.30;;
21175;SDS011;10746;50.178;8.186;2023-02-08T10:15:04;9.07;;;5.27;;
21175;SDS011;10746;50.178;8.186;2023-02-08T10:17:55;8.83;;;5.77;;
21175;SDS011;10746;50.178;8.186;2023-02-08T10:20:39;9.53;;;4.90;;
21175;SDS011;10746;50.178;8.186;2023-02-08T10:23:18;10.57;;;5.67;;
21175;SDS011;10746;50.178;8.186;2023-02-08T10:25:57;8.93;;;5.50;;
21175;SDS011;10746;50.178;8.186;2023-02-08T10:28:35;11.33;;;5.57;;
21175;SDS011;10746;50.178;8.186;2023-02-08T10:31:15;10.87;;;5.20;;
21175;SDS011;10746;50.178;8.186;2023-02-08T10:33:51;8.47;;;5.40;;
21175;SDS011;10746;50.178;8.186;2023-02-08T10:36:26;7.97;;;5.20;;
21175;SDS011;10746;50.178;8.186;2023-02-08T10:38:57;7.53;;;5.30;;
21175;SDS011;10746;50.178;8.186;2023-02-08T10:41:26;10.50;;;5.80;;
21175;SDS011;10746;50.178;8.186;2023-02-08T10:43:59;8.10;;;4.80;;
21175;SDS011;10746;50.178;8.186;2023-02-08T10:46:29;7.87;;;4.57;;
21175;SDS011;10746;50.178;8.186;2023-02-08T10:49:07;9.57;;;5.57;;
21175;SDS011;10746;50.178;8.186;2023-02-08T10:51:40;8.10;;;5.03;;
21175;SDS011;10746;50.178;8.186;2023-02-08T10:54:08;8.70;;;4.70;;
21175;SDS011;10746;50.178;8.186;2023-02-08T10:56:45;7.03;;;4.27;;
21175;SDS011;10746;50.178;8.186;2023-02-08T10:59:17;9.47;;;4.80;;
21175;SDS011;10746;50.178;8.186;2023-02-08T11:01:46;11.07;;;5.60;;
21175;SDS011;10746;50.178;8.186;2023-02-08T11:04:16;9.03;;;5.67;;
21175;SDS011;10746;50.178;8.186;2023-02-08T11:06:43;8.33;;;4.90;;
21175;SDS011;10746;50.178;8.186;2023-02-08T11:09:25;11.13;;;5.33;;
21175;SDS011;10746;50.178;8.186;2023-02-08T11:11:53;8.60;;;5.60;;
21175;SDS011;10746;50.178;8.186;2023-02-08T11:14:22;10.50;;;5.30;;
21175;SDS011;10746;50.178;8.186;2023-02-08T11:16:51;8.10;;;5.20;;
21175;SDS011;10746;50.178;8.186;2023-02-08T11:19:23;7.03;;;4.63;;
21175;SDS011;10746;50.178;8.186;2023-02-08T11:21:56;9.07;;;4.80;;
21175;SDS011;10746;50.178;8.186;2023-02-08T11:24:28;8.03;;;4.47;;
21175;SDS011;10746;50.178;8.186;2023-02-08T11:27:00;10.80;;;5.47;;
21175;SDS011;10746;50.178;8.186;2023-02-08T11:29:27;10.07;;;4.97;;
21175;SDS011;10746;50.178;8.186;2023-02-08T11:31:56;10.37;;;4.87;;
21175;SDS011;10746;50.178;8.186;2023-02-08T11:34:27;7.47;;;4.87;;
21175;SDS011;10746;50.178;8.186;2023-02-08T11:36:57;9.23;;;4.83;;
21175;SDS011;10746;50.178;8.186;2023-02-08T11:39:25;9.73;;;5.17;;
21175;SDS011;10746;50.178;8.186;2023-02-08T11:41:55;10.00;;;5.30;;
21175;SDS011;10746;50.178;8.186;2023-02-08T11:44:26;10.20;;;5.10;;
21175;SDS011;10746;50.178;8.186;2023-02-08T11:46:56;7.37;;;4.80;;
21175;SDS011;10746;50.178;8.186;2023-02-08T11:49:28;8.17;;;5.20;;
21175;SDS011;10746;50.178;8.186;2023-02-08T11:52:02;10.17;;;5.13;;
21175;SDS011;10746;50.178;8.186;2023-02-08T11:54:31;8.33;;;5.00;;
21175;SDS011;10746;50.178;8.186;2023-02-08T11:57:00;8.10;;;4.67;;
21175;SDS011;10746;50.178;8.186;2023-02-08T11:59:28;9.60;;;5.23;;
21175;SDS011;10746;50.178;8.186;2023-02-08T12:01:56;7.07;;;4.57;;
21175;SDS011;10746;50.178;8.186;2023-02-08T12:04:23;7.17;;;4.73;;
21175;SDS011;10746;50.178;8.186;2023-02-08T12:10:01;8.93;;;4.80;;
21175;SDS011;10746;50.178;8.186;2023-02-08T12:12:47;7.87;;;4.93;;
21175;SDS011;10746;50.178;8.186;2023-02-08T12:15:49;8.03;;;5.10;;
21175;SDS011;10746;50.178;8.186;2023-02-08T12:18:27;9.80;;;5.33;;
21175;SDS011;10746;50.178;8.186;2023-02-08T12:21:15;7.43;;;4.73;;
21175;SDS011;10746;50.178;8.186;2023-02-08T12:23:53;9.37;;;4.60;;
21175;SDS011;10746;50.178;8.186;2023-02-08T12:26:24;9.07;;;5.20;;
21175;SDS011;10746;50.178;8.186;2023-02-08T12:29:06;7.67;;;5.27;;
21175;SDS011;10746;50.178;8.186;2023-02-08T12:31:44;11.67;;;4.90;;
21175;SDS011;10746;50.178;8.186;2023-02-08T12:34:26;10.73;;;5.03;;
21175;SDS011;10746;50.178;8.186;2023-02-08T12:37:03;10.33;;;5.70;;
21175;SDS011;10746;50.178;8.186;2023-02-08T12:40:10;11.03;;;5.57;;
21175;SDS011;10746;50.178;8.186;2023-02-08T12:43:04;7.97;;;5.37;;
21175;SDS011;10746;50.178;8.186;2023-02-08T12:45:45;11.00;;;5.37;;
21175;SDS011;10746;50.178;8.186;2023-02-08T12:48:27;10.83;;;5.73;;
21175;SDS011;10746;50.178;8.186;2023-02-08T12:51:16;9.07;;;4.90;;
21175;SDS011;10746;50.178;8.186;2023-02-08T12:53:50;10.10;;;6.03;;
21175;SDS011;10746;50.178;8.186;2023-02-08T12:56:22;7.93;;;4.70;;
21175;SDS011;10746;50.178;8.186;2023-02-08T12:58:52;10.37;;;4.90;;
21175;SDS011;10746;50.178;8.186;2023-02-08T13:01:22;12.60;;;5.10;;
21175;SDS011;10746;50.178;8.186;2023-02-08T13:03:52;9.93;;;5.30;;
21175;SDS011;10746;50.178;8.186;2023-02-08T13:06:24;8.33;;;5.10;;
21175;SDS011;10746;50.178;8.186;2023-02-08T13:08:56;9.90;;;5.83;;
21175;SDS011;10746;50.178;8.186;2023-02-08T13:11:29;7.70;;;5.10;;
21175;SDS011;10746;50.178;8.186;2023-02-08T13:14:04;10.37;;;5.63;;
21175;SDS011;10746;50.178;8.186;2023-02-08T13:16:36;11.03;;;5.30;;
21175;SDS011;10746;50.178;8.186;2023-02-08T13:19:24;9.40;;;5.60;;
21175;SDS011;10746;50.178;8.186;2023-02-08T13:21:54;9.53;;;5.30;;
21175;SDS011;10746;50.178;8.186;2023-02-08T13:24:28;9.90;;;5.40;;
21175;SDS011;10746;50.178;8.186;2023-02-08T13:27:01;8.33;;;5.93;;
21175;SDS011;10746;50.178;8.186;2023-02-08T13:29:31;13.17;;;5.87;;
21175;SDS011;10746;50.178;8.186;2023-02-08T13:31:59;11.80;;;5.37;;
21175;SDS011;10746;50.178;8.186;2023-02-08T13:34:31;9.93;;;5.50;;
21175;SDS011;10746;50.178;8.186;2023-02-08T13:37:02;11.77;;;5.87;;
21175;SDS011;10746;50.178;8.186;2023-02-08T13:39:33;13.10;;;6.43;;
21175;SDS011;10746;50.178;8.186;2023-02-08T13:42:03;11.83;;;6.47;;
21175;SDS011;10746;50.178;8.186;2023-02-08T13:44:32;8.20;;;5.70;;
21175;SDS011;10746;50.178;8.186;2023-02-08T13:47:02;10.43;;;5.83;;
21175;SDS011;10746;50.178;8.186;2023-02-08T13:49:40;11.60;;;5.97;;
21175;SDS011;10746;50.178;8.186;2023-02-08T14:01:26;9.63;;;5.53;;
21175;SDS011;10746;50.178;8.186;2023-02-08T14:04:13;10.40;;;5.27;;
21175;SDS011;10746;50.178;8.186;2023-02-08T14:06:58;9.73;;;5.43;;
21175;SDS011;10746;50.178;8.186;2023-02-08T14:09:31;11.70;;;5.70;;
21175;SDS011;10746;50.178;8.186;2023-02-08T14:12:10;8.40;;;5.10;;
21175;SDS011;10746;50.178;8.186;2023-02-08T14:14:43;12.37;;;5.67;;
21175;SDS011;10746;50.178;8.186;2023-02-08T14:17:45;10.57;;;5.87;;
21175;SDS011;10746;50.178;8.186;2023-02-08T14:20:16;10.87;;;6.33;;
21175;SDS011;10746;50.178;8.186;2023-02-08T14:22:47;11.07;;;5.63;;
21175;SDS011;10746;50.178;8.186;2023-02-08T14:25:17;10.33;;;5.70;;
21175;SDS011;10746;50.178;8.186;2023-02-08T14:27:48;10.20;;;6.43;;
21175;SDS011;10746;50.178;8.186;2023-02-08T14:30:22;9.27;;;5.23;;
21175;SDS011;10746;50.178;8.186;2023-02-08T14:32:53;14.37;;;5.47;;
21175;SDS011;10746;50.178;8.186;2023-02-08T14:35:36;10.47;;;5.00;;
21175;SDS011;10746;50.178;8.186;2023-02-08T14:41:02;11.23;;;5.77;;
21175;SDS011;10746;50.178;8.186;2023-02-08T14:43:31;11.27;;;5.97;;
21175;SDS011;10746;50.178;8.186;2023-02-08T14:49:07;11.80;;;5.70;;
21175;SDS011;10746;50.178;8.186;2023-02-08T14:51:37;8.83;;;4.80;;
21175;SDS011;10746;50.178;8.186;2023-02-08T14:54:13;14.20;;;6.17;;
21175;SDS011;10746;50.178;8.186;2023-02-08T14:56:46;8.87;;;5.30;;
21175;SDS011;10746;50.178;8.186;2023-02-08T14:59:19;12.90;;;5.97;;
21175;SDS011;10746;50.178;8.186;2023-02-08T15:01:51;11.17;;;5.77;;
21175;SDS011;10746;50.178;8.186;2023-02-08T15:04:23;12.13;;;6.13;;
21175;SDS011;10746;50.178;8.186;2023-02-08T15:09:49;11.17;;;5.80;;
21175;SDS011;10746;50.178;8.186;2023-02-08T15:12:17;11.47;;;6.23;;
21175;SDS011;10746;50.178;8.186;2023-02-08T15:14:50;13.93;;;6.20;;
21175;SDS011;10746;50.178;8.186;2023-02-08T15:17:19;11.13;;;6.30;;
21175;SDS011;10746;50.178;8.186;2023-02-08T15:19:56;13.03;;;5.87;;
21175;SDS011;10746;50.178;8.186;2023-02-08T15:22:32;15.33;;;6.90;;